Jackson, New Jersey
Current Conditions -  °F | °C
As of 9:35 PM on Saturday 25 Oct 2014 (Local Time) from KBLM Reporting Station
Broken Clouds Broken Clouds  
Wind Chill: 61°   Ceiling: 7000
Heat Index: 61°   Visibility: 10mi
Dew Point: 43°   Wind: 9mph
Humidity: 52%   Direction: 230°SW
Pressure: 29.65"   Gusts: NA
Location:  40.12°N, 74.29°W
Report Text: KBLM 260135Z AUTO 23008KT 10SM BKN070 16/06 A2965 RMK AO1
Loading
Personal Weather Stations






























Interactive Weather Map
Tropical Storm Tracking
New forecast layout! Learn more

10-Day Weather Forecast

Advertisements
Track Severe Weather on mobile